createdAt,value
2018-09-15T00:01:54.719Z,97465.84
2018-09-15T00:04:22.991Z,97466.28
2018-09-15T00:06:52.286Z,97465.42
2018-09-15T00:09:20.577Z,97465.60
2018-09-15T00:11:48.884Z,97461.47
2018-09-15T00:14:17.163Z,97457.05
2018-09-15T00:16:45.444Z,97462.03
2018-09-15T00:19:13.736Z,97467.23
2018-09-15T00:21:42.072Z,97470.36
2018-09-15T00:24:10.342Z,97461.97
2018-09-15T00:26:38.632Z,97462.56
2018-09-15T00:29:07.024Z,97470.98
2018-09-15T00:31:35.775Z,97469.89
2018-09-15T00:34:04.048Z,97480.64
2018-09-15T00:36:32.328Z,97485.67
2018-09-15T00:39:00.688Z,97493.22
2018-09-15T00:41:28.930Z,97492.47
2018-09-15T00:43:57.205Z,97490.62
2018-09-15T00:46:25.495Z,97484.31
2018-09-15T00:48:53.782Z,97488.02
2018-09-15T00:51:22.054Z,97489.98
2018-09-15T00:53:50.351Z,97484.58
2018-09-15T00:56:18.626Z,97488.76
2018-09-15T00:58:46.995Z,97486.33
2018-09-15T01:01:15.264Z,97485.61
2018-09-15T01:03:43.567Z,97488.71
2018-09-15T01:06:12.051Z,97489.88
2018-09-15T01:08:40.338Z,97485.06
2018-09-15T01:11:08.618Z,97487.28
2018-09-15T01:13:37.423Z,97486.58
2018-09-15T01:16:05.687Z,97483.11
2018-09-15T01:18:34.042Z,97487.25
2018-09-15T01:21:02.323Z,97483.11
2018-09-15T01:23:30.616Z,97486.50
2018-09-15T01:25:58.952Z,97480.08
2018-09-15T01:28:27.176Z,97484.69
2018-09-15T01:30:55.480Z,97482.97
2018-09-15T01:33:23.731Z,97485.56
2018-09-15T01:35:51.994Z,97478.62
2018-09-15T01:38:20.279Z,97482.94
2018-09-15T01:40:48.555Z,97480.92
2018-09-15T01:43:16.838Z,97481.89
2018-09-15T01:45:45.111Z,97490.14
2018-09-15T01:48:13.395Z,97488.59
2018-09-15T01:50:41.654Z,97497.70
2018-09-15T01:53:09.938Z,97502.80
2018-09-15T01:55:38.250Z,97492.22
2018-09-15T01:58:06.540Z,97492.44
2018-09-15T02:00:34.842Z,97497.16
2018-09-15T02:03:03.157Z,97497.34
2018-09-15T02:05:31.469Z,97503.64
2018-09-15T02:07:59.750Z,97496.94
2018-09-15T02:10:28.041Z,97496.81
2018-09-15T02:12:56.323Z,97504.83
2018-09-15T02:15:24.615Z,97515.52
2018-09-15T02:17:52.887Z,97516.95
2018-09-15T02:20:21.199Z,97518.28
2018-09-15T02:22:49.545Z,97517.79
2018-09-15T02:25:17.791Z,97515.30
2018-09-15T02:27:46.075Z,97517.98
2018-09-15T02:30:14.370Z,97522.56
2018-09-15T02:32:42.674Z,97520.34
2018-09-15T02:35:10.967Z,97524.96
2018-09-15T02:37:39.230Z,97519.13
2018-09-15T02:40:07.556Z,97521.97
2018-09-15T02:42:36.147Z,97522.52
2018-09-15T02:45:04.470Z,97518.39
2018-09-15T02:47:32.782Z,97514.73
2018-09-15T02:50:01.071Z,97506.46
2018-09-15T02:52:29.355Z,97506.75
2018-09-15T02:54:57.655Z,97508.17
2018-09-15T02:57:25.946Z,97504.91
2018-09-15T02:59:54.259Z,97510.56
2018-09-15T03:02:22.716Z,97507.45
2018-09-15T03:04:51.027Z,97509.56
2018-09-15T03:07:20.308Z,97511.91
2018-09-15T03:09:48.619Z,97516.81
2018-09-15T03:12:16.918Z,97509.13
2018-09-15T03:14:45.204Z,97507.42
2018-09-15T03:17:13.516Z,97510.64
2018-09-15T03:19:41.823Z,97512.00
2018-09-15T03:22:10.230Z,97510.02
2018-09-15T03:24:38.778Z,97522.27
2018-09-15T03:27:07.082Z,97513.25
2018-09-15T03:29:35.343Z,97515.87
2018-09-15T03:32:03.647Z,97519.83
2018-09-15T03:34:31.967Z,97519.69
2018-09-15T03:37:00.262Z,97516.25
2018-09-15T03:39:28.855Z,97521.97
2018-09-15T03:41:57.163Z,97520.64
2018-09-15T03:44:25.446Z,97519.83
2018-09-15T03:46:53.758Z,97524.81
2018-09-15T03:49:22.028Z,97528.79
2018-09-15T03:51:50.939Z,97529.29
2018-09-15T03:54:20.725Z,97527.73
2018-09-15T03:56:49.338Z,97537.27
2018-09-15T03:59:18.094Z,97532.63
2018-09-15T04:01:47.223Z,97531.31
2018-09-15T04:04:15.483Z,97531.00
2018-09-15T04:06:43.783Z,97534.73
2018-09-15T04:09:12.345Z,97531.97
2018-09-15T04:11:40.636Z,97539.05
2018-09-15T04:14:09.398Z,97535.30
2018-09-15T04:16:37.890Z,97536.89
2018-09-15T04:19:06.191Z,97539.92
2018-09-15T04:21:34.499Z,97537.88
2018-09-15T04:24:02.782Z,97541.73
2018-09-15T04:26:31.063Z,97542.70
2018-09-15T04:28:59.352Z,97552.59
2018-09-15T04:31:27.610Z,97559.18
2018-09-15T04:33:55.922Z,97558.09
2018-09-15T04:36:24.196Z,97558.84
2018-09-15T04:38:52.515Z,97564.50
2018-09-15T04:41:20.917Z,97575.25
2018-09-15T04:43:49.419Z,97568.55
2018-09-15T04:46:17.699Z,97567.44
2018-09-15T04:48:46.995Z,97574.83
2018-09-15T04:51:15.267Z,97573.22
2018-09-15T04:53:43.559Z,97575.45
2018-09-15T04:56:11.840Z,97581.27
2018-09-15T04:58:40.155Z,97590.94
2018-09-15T05:01:08.414Z,97593.29
2018-09-15T05:03:36.735Z,97586.92
2018-09-15T05:06:05.000Z,97592.70
2018-09-15T05:08:33.775Z,97593.17
2018-09-15T05:11:02.031Z,97593.06
2018-09-15T05:13:30.535Z,97593.70
2018-09-15T05:15:58.815Z,97595.48
2018-09-15T05:18:27.107Z,97593.62
2018-09-15T05:20:55.399Z,97603.70
2018-09-15T05:23:23.707Z,97606.58
2018-09-15T05:25:52.379Z,97604.34
2018-09-15T05:28:20.667Z,97607.81
2018-09-15T05:30:48.948Z,97611.41
2018-09-15T05:33:17.255Z,97610.81
2018-09-15T05:35:45.802Z,97612.94
2018-09-15T05:38:14.103Z,97614.95
2018-09-15T05:40:42.406Z,97612.59
2018-09-15T05:43:10.799Z,97617.94
2018-09-15T05:45:39.075Z,97619.29
2018-09-15T05:48:07.382Z,97627.80
2018-09-15T05:50:35.642Z,97627.98
2018-09-15T05:53:03.915Z,97632.01
2018-09-15T05:55:32.225Z,97640.05
2018-09-15T05:58:00.591Z,97646.66
2018-09-15T06:00:28.958Z,97641.71
2018-09-15T06:02:57.224Z,97641.86
2018-09-15T06:05:25.803Z,97641.94
2018-09-15T06:07:54.087Z,97639.81
2018-09-15T06:10:22.388Z,97639.76
2018-09-15T06:12:50.679Z,97637.70
2018-09-15T06:15:18.976Z,97642.04
2018-09-15T06:17:47.654Z,97647.99
2018-09-15T06:20:16.460Z,97650.69
2018-09-15T06:22:44.727Z,97655.72
2018-09-15T06:25:13.043Z,97654.31
2018-09-15T06:27:41.663Z,97647.95
2018-09-15T06:30:09.976Z,97650.06
2018-09-15T06:32:38.250Z,97640.45
2018-09-15T06:35:06.551Z,97630.08
2018-09-15T06:37:34.815Z,97636.66
2018-09-15T06:40:03.406Z,97646.88
2018-09-15T06:42:31.683Z,97645.40
2018-09-15T06:44:59.988Z,97645.89
2018-09-15T06:47:28.487Z,97642.90
2018-09-15T06:49:56.790Z,97650.86
2018-09-15T06:52:25.063Z,97649.20
2018-09-15T06:54:53.384Z,97652.45
2018-09-15T06:57:21.692Z,97662.59
2018-09-15T06:59:51.011Z,97652.17
2018-09-15T07:02:19.618Z,97656.91
2018-09-15T07:04:47.935Z,97649.81
2018-09-15T07:07:16.215Z,97650.16
2018-09-15T07:09:44.507Z,97647.28
2018-09-15T07:12:13.136Z,97653.39
2018-09-15T07:14:41.428Z,97664.86
2018-09-15T07:17:09.723Z,97662.25
2018-09-15T07:19:37.999Z,97665.13
2018-09-15T07:22:06.374Z,97673.99
2018-09-15T07:24:34.652Z,97661.17
2018-09-15T07:27:02.971Z,97663.35
2018-09-15T07:29:31.243Z,97665.55
2018-09-15T07:31:59.588Z,97667.84
2018-09-15T07:34:27.835Z,97663.16
2018-09-15T07:36:56.129Z,97665.94
2018-09-15T07:39:24.426Z,97676.52
2018-09-15T07:41:52.726Z,97687.31
2018-09-15T07:44:20.991Z,97685.75
2018-09-15T07:46:49.639Z,97678.01
2018-09-15T07:49:17.934Z,97676.89
2018-09-15T07:51:46.287Z,97685.30
2018-09-15T07:54:14.553Z,97686.36
2018-09-15T07:56:42.882Z,97686.95
2018-09-15T07:59:11.187Z,97687.92
2018-09-15T08:01:39.490Z,97690.11
2018-09-15T08:04:07.798Z,97684.37
2018-09-15T08:06:36.120Z,97687.88
2018-09-15T08:09:05.143Z,97682.92
2018-09-15T08:11:33.455Z,97684.45
2018-09-15T08:14:01.734Z,97693.59
2018-09-15T08:16:30.039Z,97685.86
2018-09-15T08:18:58.335Z,97686.41
2018-09-15T08:21:26.643Z,97692.60
2018-09-15T08:23:55.339Z,97700.27
2018-09-15T08:26:23.747Z,97699.06
2018-09-15T08:28:52.299Z,97705.83
2018-09-15T08:31:20.640Z,97704.77
2018-09-15T08:33:48.942Z,97702.61
2018-09-15T08:36:17.255Z,97702.48
2018-09-15T08:38:45.547Z,97700.58
2018-09-15T08:41:13.822Z,97715.11
2018-09-15T08:43:42.130Z,97714.83
2018-09-15T08:46:10.387Z,97705.80
2018-09-15T08:48:38.699Z,97719.04
2018-09-15T08:51:07.143Z,97701.50
2018-09-15T08:53:35.447Z,97713.91
2018-09-15T08:56:04.182Z,97716.95
2018-09-15T08:58:32.862Z,97719.58
2018-09-15T09:01:01.178Z,97717.70
2018-09-15T09:03:29.502Z,97723.18
2018-09-15T09:05:57.787Z,97719.57
2018-09-15T09:08:26.100Z,97722.36
2018-09-15T09:10:54.470Z,97721.73
2018-09-15T09:13:22.762Z,97718.70
2018-09-15T09:15:51.044Z,97729.34
2018-09-15T09:18:19.335Z,97726.94
2018-09-15T09:20:48.247Z,97720.22
2018-09-15T09:23:16.553Z,97723.39
2018-09-15T09:25:44.873Z,97719.86
2018-09-15T09:28:13.523Z,97724.63
2018-09-15T09:30:41.822Z,97726.23
2018-09-15T09:33:10.155Z,97715.23
2018-09-15T09:35:38.799Z,97717.30
2018-09-15T09:38:07.141Z,97719.61
2018-09-15T09:40:35.451Z,97727.45
2018-09-15T09:43:03.742Z,97718.69
2018-09-15T09:45:32.045Z,97732.81
2018-09-15T09:48:00.404Z,97731.46
2018-09-15T09:50:28.635Z,97728.64
2018-09-15T09:52:56.914Z,97723.16
2018-09-15T09:55:25.224Z,97729.94
2018-09-15T09:57:53.511Z,97728.84
2018-09-15T10:00:26.958Z,97706.56
2018-09-15T10:02:56.082Z,97716.45
2018-09-15T10:05:24.372Z,97720.48
2018-09-15T10:07:52.650Z,97722.52
2018-09-15T10:10:20.959Z,97727.66
2018-09-15T10:12:49.615Z,97737.05
2018-09-15T10:15:17.943Z,97732.80
2018-09-15T10:17:46.235Z,97727.86
2018-09-15T10:20:14.939Z,97724.90
2018-09-15T10:22:44.008Z,97733.54
2018-09-15T10:25:12.298Z,97740.81
2018-09-15T10:27:41.485Z,97741.19
2018-09-15T10:30:10.152Z,97746.47
2018-09-15T10:32:38.975Z,97747.21
2018-09-15T10:35:07.836Z,97743.30
2018-09-15T10:37:36.487Z,97745.75
2018-09-15T10:40:05.211Z,97737.74
2018-09-15T10:42:33.490Z,97732.66
2018-09-15T10:45:02.830Z,97729.88
2018-09-15T10:47:32.361Z,97725.69
2018-09-15T10:50:00.659Z,97730.92
2018-09-15T10:52:29.507Z,97730.78
2018-09-15T10:54:58.051Z,97725.61
2018-09-15T10:57:26.662Z,97733.38
2018-09-15T10:59:55.689Z,97731.75
2018-09-15T11:02:24.963Z,97728.70
2018-09-15T11:04:53.792Z,97734.27
2018-09-15T11:07:22.184Z,97735.47
2018-09-15T11:09:51.270Z,97735.72
2018-09-15T11:12:19.587Z,97736.55
2018-09-15T11:14:49.307Z,97735.00
2018-09-15T11:17:18.011Z,97728.52
2018-09-15T11:19:46.805Z,97728.36
2018-09-15T11:22:15.127Z,97728.38
2018-09-15T11:24:43.448Z,97729.30
2018-09-15T11:27:11.766Z,97737.33
2018-09-15T11:29:40.391Z,97737.01
2018-09-15T11:32:08.730Z,97747.45
2018-09-15T11:34:37.347Z,97745.13
2018-09-15T11:37:05.910Z,97743.94
2018-09-15T11:39:34.174Z,97739.58
2018-09-15T11:42:02.472Z,97751.42
2018-09-15T11:44:30.755Z,97748.69
2018-09-15T11:46:59.457Z,97749.09
2018-09-15T11:49:28.275Z,97745.92
2018-09-15T11:51:56.584Z,97748.62
2018-09-15T11:54:25.091Z,97746.44
2018-09-15T11:56:53.392Z,97744.91
2018-09-15T11:59:21.687Z,97736.98
2018-09-15T12:01:50.009Z,97743.70
2018-09-15T12:04:18.294Z,97747.64
2018-09-15T12:06:46.975Z,97750.05
2018-09-15T12:09:15.271Z,97741.22
2018-09-15T12:11:43.742Z,97751.13
2018-09-15T12:14:12.467Z,97745.55
2018-09-15T12:16:40.687Z,97741.87
2018-09-15T12:19:08.998Z,97740.98
2018-09-15T12:21:37.745Z,97737.39
2018-09-15T12:24:06.303Z,97734.42
2018-09-15T12:26:34.565Z,97733.88
2018-09-15T12:29:02.875Z,97734.12
2018-09-15T12:31:31.146Z,97731.84
2018-09-15T12:33:59.452Z,97722.33
2018-09-15T12:36:27.803Z,97722.30
2018-09-15T12:38:56.127Z,97728.37
2018-09-15T12:41:24.415Z,97720.47
2018-09-15T12:43:52.728Z,97729.72
2018-09-15T12:46:21.035Z,97721.80
2018-09-15T12:48:49.341Z,97721.55
2018-09-15T12:51:17.622Z,97720.13
2018-09-15T12:53:46.211Z,97716.05
2018-09-15T12:56:14.587Z,97706.98
2018-09-15T12:58:43.002Z,97706.53
2018-09-15T13:01:11.283Z,97709.84
2018-09-15T13:03:40.015Z,97706.13
2018-09-15T13:06:08.375Z,97701.30
2018-09-15T13:08:36.658Z,97710.75
2018-09-15T13:11:04.980Z,97714.82
2018-09-15T13:13:33.303Z,97714.94
2018-09-15T13:16:01.864Z,97719.70
2018-09-15T13:18:30.182Z,97716.41
2018-09-15T13:20:58.872Z,97717.46
2018-09-15T13:23:27.151Z,97710.03
2018-09-15T13:25:55.823Z,97710.56
2018-09-15T13:28:24.087Z,97705.33
2018-09-15T13:30:52.380Z,97709.43
2018-09-15T13:33:20.658Z,97706.25
2018-09-15T13:35:48.961Z,97694.81
2018-09-15T13:38:17.263Z,97691.72
2018-09-15T13:40:45.703Z,97691.66
2018-09-15T13:43:13.983Z,97693.39
2018-09-15T13:45:42.287Z,97693.38
2018-09-15T13:48:10.566Z,97689.23
2018-09-15T13:50:38.871Z,97690.69
2018-09-15T13:53:07.479Z,97694.52
2018-09-15T13:55:35.738Z,97695.39
2018-09-15T13:58:04.027Z,97695.41
2018-09-15T14:00:32.339Z,97701.81
2018-09-15T14:03:00.618Z,97702.52
2018-09-15T14:05:28.943Z,97710.70
2018-09-15T14:07:57.615Z,97704.72
2018-09-15T14:10:25.910Z,97708.34
2018-09-15T14:12:54.192Z,97705.89
2018-09-15T14:15:22.517Z,97709.59
2018-09-15T14:17:50.810Z,97709.17
2018-09-15T14:20:19.155Z,97708.80
2018-09-15T14:22:47.448Z,97704.13
2018-09-15T14:25:15.759Z,97701.61
2018-09-15T14:27:44.598Z,97702.98
2018-09-15T14:30:12.891Z,97698.77
2018-09-15T14:32:41.171Z,97696.78
2018-09-15T14:35:09.695Z,97696.05
2018-09-15T14:37:37.975Z,97699.28
2018-09-15T14:40:06.310Z,97700.48
2018-09-15T14:42:34.614Z,97701.95
2018-09-15T14:45:02.903Z,97707.14
2018-09-15T14:47:31.203Z,97705.13
2018-09-15T14:49:59.486Z,97693.95
2018-09-15T14:52:27.800Z,97690.47
2018-09-15T14:54:56.079Z,97688.09
2018-09-15T14:57:24.404Z,97686.78
2018-09-15T14:59:52.687Z,97692.74
2018-09-15T15:02:20.995Z,97699.17
2018-09-15T15:04:49.458Z,97707.60
2018-09-15T15:07:17.758Z,97712.23
2018-09-15T15:09:46.043Z,97709.58
2018-09-15T15:12:14.355Z,97705.17
2018-09-15T15:14:42.895Z,97704.91
2018-09-15T15:17:11.200Z,97697.34
2018-09-15T15:19:39.539Z,97701.41
2018-09-15T15:22:07.851Z,97698.82
2018-09-15T15:24:36.298Z,97702.56
2018-09-15T15:27:04.627Z,97702.17
2018-09-15T15:29:32.899Z,97707.29
2018-09-15T15:32:01.242Z,97700.87
2018-09-15T15:34:29.761Z,97699.72
2018-09-15T15:36:58.190Z,97696.83
2018-09-15T15:39:26.465Z,97704.69
2018-09-15T15:41:54.769Z,97706.33
2018-09-15T15:44:23.046Z,97702.73
2018-09-15T15:46:51.945Z,97699.72
2018-09-15T15:49:20.243Z,97700.21
2018-09-15T15:51:48.555Z,97703.05
2018-09-15T15:54:16.847Z,97699.81
2018-09-15T15:56:46.139Z,97704.41
2018-09-15T15:59:14.444Z,97710.89
2018-09-15T16:01:42.740Z,97707.45
2018-09-15T16:04:11.016Z,97708.64
2018-09-15T16:06:39.347Z,97710.25
2018-09-15T16:09:08.584Z,97703.34
2018-09-15T16:11:37.827Z,97705.68
2018-09-15T16:14:06.083Z,97710.73
2018-09-15T16:16:34.399Z,97716.05
2018-09-15T16:19:02.688Z,97713.87
2018-09-15T16:21:31.226Z,97711.83
2018-09-15T16:23:59.514Z,97708.30
2018-09-15T16:26:27.778Z,97714.06
2018-09-15T16:28:56.087Z,97719.56
2018-09-15T16:31:24.986Z,97708.87
2018-09-15T16:33:53.287Z,97708.86
2018-09-15T16:36:21.556Z,97704.09
2018-09-15T16:38:49.895Z,97695.85
2018-09-15T16:41:18.166Z,97697.19
2018-09-15T16:43:46.495Z,97697.89
2018-09-15T16:46:14.774Z,97706.68
2018-09-15T16:48:43.070Z,97698.51
2018-09-15T16:51:11.363Z,97703.02
2018-09-15T16:53:39.672Z,97701.52
2018-09-15T16:56:07.951Z,97706.36
2018-09-15T16:58:36.278Z,97704.33
2018-09-15T17:01:04.591Z,97706.04
2018-09-15T17:03:33.003Z,97707.87
2018-09-15T17:06:01.237Z,97702.91
2018-09-15T17:08:29.563Z,97705.61
2018-09-15T17:10:57.838Z,97711.59
2018-09-15T17:13:26.131Z,97709.03
2018-09-15T17:15:54.453Z,97717.70
2018-09-15T17:18:22.726Z,97717.00
2018-09-15T17:20:51.027Z,97720.45
2018-09-15T17:23:19.347Z,97719.47
2018-09-15T17:25:47.632Z,97717.91
2018-09-15T17:28:15.934Z,97719.91
2018-09-15T17:30:44.576Z,97712.64
2018-09-15T17:33:12.886Z,97717.27
2018-09-15T17:35:41.186Z,97723.72
2018-09-15T17:38:09.466Z,97726.35
2018-09-15T17:40:38.130Z,97733.05
2018-09-15T17:43:06.423Z,97731.30
2018-09-15T17:45:34.734Z,97735.52
2018-09-15T17:48:03.090Z,97732.67
2018-09-15T17:50:31.391Z,97741.42
2018-09-15T17:52:59.674Z,97742.98
2018-09-15T17:55:27.966Z,97747.64
2018-09-15T17:57:56.239Z,97752.14
2018-09-15T18:00:24.564Z,97758.80
2018-09-15T18:02:52.991Z,97757.88
2018-09-15T18:05:21.282Z,97761.05
2018-09-15T18:07:49.575Z,97756.42
2018-09-15T18:10:17.868Z,97760.41
2018-09-15T18:12:46.166Z,97760.66
2018-09-15T18:15:14.457Z,97768.03
2018-09-15T18:17:42.733Z,97766.91
2018-09-15T18:20:11.022Z,97770.27
2018-09-15T18:22:39.288Z,97776.18
2018-09-15T18:25:07.630Z,97777.41
2018-09-15T18:27:35.919Z,97779.22
2018-09-15T18:30:04.347Z,97779.53
2018-09-15T18:32:33.043Z,97777.93
2018-09-15T18:35:01.802Z,97781.53
2018-09-15T18:37:30.079Z,97789.14
2018-09-15T18:39:58.375Z,97793.58
2018-09-15T18:42:26.656Z,97794.30
2018-09-15T18:44:54.962Z,97797.95
2018-09-15T18:47:23.230Z,97794.23
2018-09-15T18:49:51.523Z,97800.83
2018-09-15T18:52:19.782Z,97803.58
2018-09-15T18:54:48.098Z,97798.38
2018-09-15T18:57:16.403Z,97794.05
2018-09-15T18:59:44.742Z,97800.72
2018-09-15T19:02:13.035Z,97794.78
2018-09-15T19:04:41.703Z,97795.59
2018-09-15T19:07:10.024Z,97797.34
2018-09-15T19:09:38.310Z,97802.23
2018-09-15T19:12:06.663Z,97800.06
2018-09-15T19:14:34.952Z,97803.96
2018-09-15T19:17:03.251Z,97797.91
2018-09-15T19:19:31.520Z,97803.38
2018-09-15T19:22:00.271Z,97804.33
2018-09-15T19:24:28.643Z,97802.45
2018-09-15T19:26:57.008Z,97807.86
2018-09-15T19:29:25.275Z,97801.11
2018-09-15T19:31:53.585Z,97802.92
2018-09-15T19:34:22.271Z,97802.78
2018-09-15T19:36:50.559Z,97806.91
2018-09-15T19:39:18.838Z,97805.50
2018-09-15T19:41:47.155Z,97814.27
2018-09-15T19:44:15.419Z,97816.81
2018-09-15T19:46:43.690Z,97822.38
2018-09-15T19:49:12.450Z,97829.51
2018-09-15T19:51:40.743Z,97824.97
2018-09-15T19:54:09.042Z,97828.92
2018-09-15T19:56:37.311Z,97827.43
2018-09-15T19:59:05.643Z,97827.31
2018-09-15T20:01:33.934Z,97829.41
2018-09-15T20:04:02.232Z,97822.63
2018-09-15T20:06:30.508Z,97824.52
2018-09-15T20:08:58.795Z,97828.70
2018-09-15T20:11:27.070Z,97823.41
2018-09-15T20:13:55.379Z,97829.18
2018-09-15T20:16:22.883Z,97828.80
2018-09-15T20:18:50.161Z,97831.63
2018-09-15T20:21:17.347Z,97828.24
2018-09-15T20:23:45.663Z,97828.28
2018-09-15T20:26:13.972Z,97826.49
2018-09-15T20:28:42.263Z,97826.70
2018-09-15T20:31:10.539Z,97832.38
2018-09-15T20:33:38.826Z,97834.91
2018-09-15T20:36:07.299Z,97828.64
2018-09-15T20:38:35.607Z,97827.16
2018-09-15T20:41:03.891Z,97825.40
2018-09-15T20:43:32.188Z,97825.48
2018-09-15T20:46:00.449Z,97826.86
2018-09-15T20:48:28.741Z,97829.98
2018-09-15T20:50:57.031Z,97832.19
2018-09-15T20:53:25.339Z,97839.23
2018-09-15T20:55:53.616Z,97841.07
2018-09-15T20:58:21.956Z,97839.27
2018-09-15T21:00:50.300Z,97839.88
2018-09-15T21:03:18.619Z,97845.64
2018-09-15T21:05:46.908Z,97843.13
2018-09-15T21:08:15.289Z,97835.52
2018-09-15T21:10:43.582Z,97833.79
2018-09-15T21:13:11.879Z,97832.75
2018-09-15T21:15:40.168Z,97836.17
2018-09-15T21:18:08.491Z,97838.11
2018-09-15T21:20:36.895Z,97832.33
2018-09-15T21:23:05.238Z,97833.36
2018-09-15T21:25:33.554Z,97832.62
2018-09-15T21:28:01.896Z,97837.30
2018-09-15T21:30:30.244Z,97832.62
2018-09-15T21:32:58.949Z,97835.91
2018-09-15T21:35:27.575Z,97840.36
2018-09-15T21:37:55.863Z,97845.72
2018-09-15T21:40:24.171Z,97840.80
2018-09-15T21:42:52.456Z,97841.84
2018-09-15T21:45:20.764Z,97840.84
2018-09-15T21:47:49.057Z,97841.06
2018-09-15T21:50:17.368Z,97839.67
2018-09-15T21:52:45.646Z,97838.06
2018-09-15T21:55:16.819Z,97833.83
2018-09-15T21:57:45.132Z,97827.73
2018-09-15T22:00:13.515Z,97827.26
2018-09-15T22:02:41.808Z,97828.25
2018-09-15T22:05:10.127Z,97834.48
2018-09-15T22:07:38.452Z,97837.89
2018-09-15T22:10:06.780Z,97829.09
2018-09-15T22:12:35.075Z,97838.29
2018-09-15T22:15:03.414Z,97836.17
2018-09-15T22:17:31.719Z,97838.20
2018-09-15T22:20:00.055Z,97842.81
2018-09-15T22:22:28.491Z,97840.88
2018-09-15T22:24:56.747Z,97840.73
2018-09-15T22:27:25.035Z,97842.55
2018-09-15T22:29:53.359Z,97843.06
2018-09-15T22:32:21.646Z,97851.56
2018-09-15T22:34:49.955Z,97841.37
2018-09-15T22:37:18.267Z,97845.54
2018-09-15T22:39:46.575Z,97846.73
2018-09-15T22:42:14.899Z,97842.73
2018-09-15T22:44:43.176Z,97844.52
2018-09-15T22:47:11.559Z,97839.91
2018-09-15T22:49:39.852Z,97839.09
2018-09-15T22:52:08.170Z,97839.33
2018-09-15T22:54:36.495Z,97846.30
2018-09-15T22:57:04.879Z,97838.56
2018-09-15T22:59:33.162Z,97841.19
2018-09-15T23:02:01.483Z,97833.89
2018-09-15T23:04:29.770Z,97827.20
2018-09-15T23:06:58.087Z,97833.89
2018-09-15T23:09:26.390Z,97826.69
2018-09-15T23:11:54.687Z,97824.89
2018-09-15T23:14:22.990Z,97826.53
2018-09-15T23:16:51.307Z,97823.41
2018-09-15T23:19:19.590Z,97824.44
2018-09-15T23:21:47.899Z,97827.72
2018-09-15T23:24:16.182Z,97829.20
2018-09-15T23:26:44.492Z,97818.05
2018-09-15T23:29:12.783Z,97818.56
2018-09-15T23:31:41.348Z,97817.17
2018-09-15T23:34:09.842Z,97815.16
2018-09-15T23:36:38.159Z,97813.89
2018-09-15T23:39:08.328Z,97812.25
2018-09-15T23:41:37.531Z,97811.30
2018-09-15T23:44:05.867Z,97808.41
2018-09-15T23:46:34.175Z,97804.55
2018-09-15T23:49:02.483Z,97806.83
2018-09-15T23:51:30.758Z,97798.17
2018-09-15T23:53:59.063Z,97799.88
2018-09-15T23:56:28.355Z,97801.67
2018-09-15T23:58:56.679Z,97793.46
